sensor_id;sensor_type;location;lat;lon;timestamp;P1;durP1;ratioP1;P2;durP2;ratioP2
45420;SDS011;55462;47.042;8.292;2022-09-20T00:00:48;4.70;;;1.10;;
45420;SDS011;55462;47.042;8.292;2022-09-20T00:03:14;3.33;;;1.40;;
45420;SDS011;55462;47.042;8.292;2022-09-20T00:05:41;3.80;;;1.17;;
45420;SDS011;55462;47.042;8.292;2022-09-20T00:08:09;2.13;;;1.42;;
45420;SDS011;55462;47.042;8.292;2022-09-20T00:10:36;4.30;;;1.20;;
45420;SDS011;55462;47.042;8.292;2022-09-20T00:13:03;2.08;;;1.20;;
45420;SDS011;55462;47.042;8.292;2022-09-20T00:15:30;3.58;;;1.17;;
45420;SDS011;55462;47.042;8.292;2022-09-20T00:17:55;1.75;;;1.40;;
45420;SDS011;55462;47.042;8.292;2022-09-20T00:20:20;3.40;;;1.45;;
45420;SDS011;55462;47.042;8.292;2022-09-20T00:22:46;2.92;;;1.50;;
45420;SDS011;55462;47.042;8.292;2022-09-20T00:25:14;1.85;;;1.63;;
45420;SDS011;55462;47.042;8.292;2022-09-20T00:27:42;3.35;;;1.40;;
45420;SDS011;55462;47.042;8.292;2022-09-20T00:30:08;1.38;;;1.27;;
45420;SDS011;55462;47.042;8.292;2022-09-20T00:32:35;1.42;;;1.33;;
45420;SDS011;55462;47.042;8.292;2022-09-20T00:35:00;1.60;;;1.50;;
45420;SDS011;55462;47.042;8.292;2022-09-20T00:37:33;5.18;;;1.65;;
45420;SDS011;55462;47.042;8.292;2022-09-20T00:39:59;1.85;;;1.50;;
45420;SDS011;55462;47.042;8.292;2022-09-20T00:42:28;3.28;;;1.52;;
45420;SDS011;55462;47.042;8.292;2022-09-20T00:44:57;1.40;;;1.30;;
45420;SDS011;55462;47.042;8.292;2022-09-20T00:49:55;2.05;;;1.10;;
45420;SDS011;55462;47.042;8.292;2022-09-20T00:52:32;1.45;;;1.35;;
45420;SDS011;55462;47.042;8.292;2022-09-20T00:54:59;3.78;;;1.42;;
45420;SDS011;55462;47.042;8.292;2022-09-20T00:57:25;3.05;;;1.20;;
45420;SDS011;55462;47.042;8.292;2022-09-20T00:59:50;3.28;;;1.30;;
45420;SDS011;55462;47.042;8.292;2022-09-20T01:02:18;1.40;;;1.23;;
45420;SDS011;55462;47.042;8.292;2022-09-20T01:04:45;4.60;;;1.40;;
45420;SDS011;55462;47.042;8.292;2022-09-20T01:07:12;2.67;;;1.63;;
45420;SDS011;55462;47.042;8.292;2022-09-20T01:09:40;1.73;;;1.60;;
45420;SDS011;55462;47.042;8.292;2022-09-20T01:12:06;2.10;;;1.73;;
45420;SDS011;55462;47.042;8.292;2022-09-20T01:14:36;2.55;;;1.38;;
45420;SDS011;55462;47.042;8.292;2022-09-20T01:17:03;1.52;;;1.42;;
45420;SDS011;55462;47.042;8.292;2022-09-20T01:22:09;3.00;;;1.42;;
45420;SDS011;55462;47.042;8.292;2022-09-20T01:30:15;1.40;;;1.30;;
45420;SDS011;55462;47.042;8.292;2022-09-20T01:32:52;1.95;;;1.40;;
45420;SDS011;55462;47.042;8.292;2022-09-20T01:35:19;4.60;;;1.60;;
45420;SDS011;55462;47.042;8.292;2022-09-20T01:37:54;2.15;;;1.33;;
45420;SDS011;55462;47.042;8.292;2022-09-20T01:40:38;1.92;;;1.55;;
45420;SDS011;55462;47.042;8.292;2022-09-20T01:45:45;1.80;;;1.58;;
45420;SDS011;55462;47.042;8.292;2022-09-20T01:54:19;2.63;;;1.50;;
45420;SDS011;55462;47.042;8.292;2022-09-20T02:27:16;2.90;;;1.50;;
45420;SDS011;55462;47.042;8.292;2022-09-20T02:29:32;3.10;;;1.60;;
45420;SDS011;55462;47.042;8.292;2022-09-20T02:40:30;2.28;;;1.65;;
45420;SDS011;55462;47.042;8.292;2022-09-20T02:46:00;2.70;;;1.43;;
45420;SDS011;55462;47.042;8.292;2022-09-20T02:56:37;3.97;;;1.65;;
45420;SDS011;55462;47.042;8.292;2022-09-20T02:59:17;2.78;;;1.90;;
45420;SDS011;55462;47.042;8.292;2022-09-20T03:02:08;1.90;;;1.80;;
45420;SDS011;55462;47.042;8.292;2022-09-20T03:13:19;2.20;;;2.00;;
45420;SDS011;55462;47.042;8.292;2022-09-20T03:28:33;3.45;;;2.45;;
45420;SDS011;55462;47.042;8.292;2022-09-20T03:50:06;4.43;;;2.08;;
45420;SDS011;55462;47.042;8.292;2022-09-20T03:58:33;3.58;;;2.10;;
45420;SDS011;55462;47.042;8.292;2022-09-20T04:09:18;1.98;;;1.88;;
45420;SDS011;55462;47.042;8.292;2022-09-20T04:12:14;2.33;;;2.00;;
45420;SDS011;55462;47.042;8.292;2022-09-20T04:14:59;7.35;;;2.00;;
45420;SDS011;55462;47.042;8.292;2022-09-20T04:17:46;3.00;;;2.00;;
45420;SDS011;55462;47.042;8.292;2022-09-20T04:20:22;2.72;;;1.88;;
45420;SDS011;55462;47.042;8.292;2022-09-20T04:23:20;3.58;;;2.22;;
45420;SDS011;55462;47.042;8.292;2022-09-20T04:25:54;4.47;;;2.10;;
45420;SDS011;55462;47.042;8.292;2022-09-20T04:28:24;5.07;;;2.30;;
45420;SDS011;55462;47.042;8.292;2022-09-20T04:30:53;2.35;;;2.15;;
45420;SDS011;55462;47.042;8.292;2022-09-20T04:33:30;2.40;;;2.20;;
45420;SDS011;55462;47.042;8.292;2022-09-20T04:47:30;2.38;;;2.00;;
45420;SDS011;55462;47.042;8.292;2022-09-20T04:59:05;6.80;;;2.40;;
45420;SDS011;55462;47.042;8.292;2022-09-20T05:09:59;2.30;;;2.10;;
45420;SDS011;55462;47.042;8.292;2022-09-20T05:26:25;2.73;;;2.10;;
45420;SDS011;55462;47.042;8.292;2022-09-20T05:28:59;5.10;;;2.30;;
45420;SDS011;55462;47.042;8.292;2022-09-20T05:34:18;2.90;;;2.03;;
45420;SDS011;55462;47.042;8.292;2022-09-20T05:36:51;3.10;;;2.17;;
45420;SDS011;55462;47.042;8.292;2022-09-20T05:39:25;3.67;;;2.53;;
45420;SDS011;55462;47.042;8.292;2022-09-20T05:41:58;4.23;;;2.20;;
45420;SDS011;55462;47.042;8.292;2022-09-20T05:50:23;5.03;;;2.23;;
45420;SDS011;55462;47.042;8.292;2022-09-20T06:01:48;4.13;;;2.10;;
45420;SDS011;55462;47.042;8.292;2022-09-20T06:04:18;4.75;;;2.10;;
45420;SDS011;55462;47.042;8.292;2022-09-20T06:07:01;2.97;;;2.30;;
45420;SDS011;55462;47.042;8.292;2022-09-20T06:12:36;7.10;;;2.60;;
45420;SDS011;55462;47.042;8.292;2022-09-20T06:17:47;4.65;;;2.63;;
45420;SDS011;55462;47.042;8.292;2022-09-20T06:20:32;2.92;;;2.40;;
45420;SDS011;55462;47.042;8.292;2022-09-20T06:23:02;5.28;;;2.60;;
45420;SDS011;55462;47.042;8.292;2022-09-20T06:28:19;6.40;;;2.72;;
45420;SDS011;55462;47.042;8.292;2022-09-20T06:33:16;7.03;;;1.85;;
45420;SDS011;55462;47.042;8.292;2022-09-20T06:35:50;7.65;;;2.50;;
45420;SDS011;55462;47.042;8.292;2022-09-20T06:41:24;7.80;;;2.70;;
45420;SDS011;55462;47.042;8.292;2022-09-20T06:43:52;4.93;;;2.83;;
45420;SDS011;55462;47.042;8.292;2022-09-20T06:46:25;5.72;;;2.35;;
45420;SDS011;55462;47.042;8.292;2022-09-20T06:48:52;2.92;;;1.92;;
45420;SDS011;55462;47.042;8.292;2022-09-20T06:51:19;4.43;;;2.25;;
45420;SDS011;55462;47.042;8.292;2022-09-20T06:53:44;3.40;;;2.03;;
45420;SDS011;55462;47.042;8.292;2022-09-20T06:56:12;2.92;;;1.77;;
45420;SDS011;55462;47.042;8.292;2022-09-20T06:58:41;2.70;;;2.10;;
45420;SDS011;55462;47.042;8.292;2022-09-20T07:01:06;4.60;;;2.67;;
45420;SDS011;55462;47.042;8.292;2022-09-20T07:03:31;4.53;;;2.33;;
45420;SDS011;55462;47.042;8.292;2022-09-20T07:05:57;2.65;;;2.08;;
45420;SDS011;55462;47.042;8.292;2022-09-20T07:08:24;3.33;;;2.20;;
45420;SDS011;55462;47.042;8.292;2022-09-20T07:10:50;3.53;;;2.20;;
45420;SDS011;55462;47.042;8.292;2022-09-20T07:13:15;2.55;;;1.80;;
45420;SDS011;55462;47.042;8.292;2022-09-20T07:15:43;2.17;;;1.98;;
45420;SDS011;55462;47.042;8.292;2022-09-20T07:18:08;5.28;;;1.90;;
45420;SDS011;55462;47.042;8.292;2022-09-20T07:20:33;4.97;;;2.10;;
45420;SDS011;55462;47.042;8.292;2022-09-20T07:22:59;4.25;;;2.22;;
45420;SDS011;55462;47.042;8.292;2022-09-20T07:25:24;3.10;;;2.38;;
45420;SDS011;55462;47.042;8.292;2022-09-20T07:27:50;2.20;;;2.00;;
45420;SDS011;55462;47.042;8.292;2022-09-20T07:30:15;2.28;;;2.17;;
45420;SDS011;55462;47.042;8.292;2022-09-20T07:32:42;3.42;;;1.85;;
45420;SDS011;55462;47.042;8.292;2022-09-20T07:35:07;2.92;;;2.10;;
45420;SDS011;55462;47.042;8.292;2022-09-20T07:37:34;4.40;;;2.13;;
45420;SDS011;55462;47.042;8.292;2022-09-20T07:40:00;3.08;;;2.15;;
45420;SDS011;55462;47.042;8.292;2022-09-20T07:42:26;2.90;;;2.10;;
45420;SDS011;55462;47.042;8.292;2022-09-20T07:44:53;2.20;;;2.00;;
45420;SDS011;55462;47.042;8.292;2022-09-20T07:47:19;3.50;;;2.05;;
45420;SDS011;55462;47.042;8.292;2022-09-20T07:49:45;1.90;;;1.80;;
45420;SDS011;55462;47.042;8.292;2022-09-20T07:52:10;5.50;;;2.85;;
45420;SDS011;55462;47.042;8.292;2022-09-20T07:54:36;2.50;;;2.30;;
45420;SDS011;55462;47.042;8.292;2022-09-20T07:57:01;3.10;;;2.20;;
45420;SDS011;55462;47.042;8.292;2022-09-20T07:59:27;5.88;;;2.97;;
45420;SDS011;55462;47.042;8.292;2022-09-20T08:01:52;2.33;;;2.00;;
45420;SDS011;55462;47.042;8.292;2022-09-20T08:04:18;2.65;;;2.25;;
45420;SDS011;55462;47.042;8.292;2022-09-20T08:06:44;3.70;;;2.38;;
45420;SDS011;55462;47.042;8.292;2022-09-20T08:09:10;6.55;;;2.83;;
45420;SDS011;55462;47.042;8.292;2022-09-20T08:11:37;5.05;;;2.47;;
45420;SDS011;55462;47.042;8.292;2022-09-20T08:14:03;4.30;;;2.40;;
45420;SDS011;55462;47.042;8.292;2022-09-20T08:16:29;5.15;;;2.60;;
45420;SDS011;55462;47.042;8.292;2022-09-20T08:18:56;3.20;;;2.42;;
45420;SDS011;55462;47.042;8.292;2022-09-20T08:21:23;5.93;;;2.40;;
45420;SDS011;55462;47.042;8.292;2022-09-20T08:23:50;5.22;;;2.40;;
45420;SDS011;55462;47.042;8.292;2022-09-20T08:26:16;3.47;;;2.50;;
45420;SDS011;55462;47.042;8.292;2022-09-20T08:28:44;3.95;;;2.45;;
45420;SDS011;55462;47.042;8.292;2022-09-20T08:31:11;3.20;;;2.50;;
45420;SDS011;55462;47.042;8.292;2022-09-20T08:33:38;4.35;;;2.40;;
45420;SDS011;55462;47.042;8.292;2022-09-20T08:36:04;2.40;;;2.17;;
45420;SDS011;55462;47.042;8.292;2022-09-20T08:38:31;4.25;;;2.10;;
45420;SDS011;55462;47.042;8.292;2022-09-20T08:41:31;3.33;;;2.08;;
45420;SDS011;55462;47.042;8.292;2022-09-20T08:43:59;3.22;;;2.30;;
45420;SDS011;55462;47.042;8.292;2022-09-20T08:46:28;3.75;;;2.30;;
45420;SDS011;55462;47.042;8.292;2022-09-20T08:48:58;5.03;;;2.10;;
45420;SDS011;55462;47.042;8.292;2022-09-20T08:51:25;3.08;;;2.20;;
45420;SDS011;55462;47.042;8.292;2022-09-20T08:53:54;2.85;;;2.08;;
45420;SDS011;55462;47.042;8.292;2022-09-20T08:56:21;3.17;;;2.45;;
45420;SDS011;55462;47.042;8.292;2022-09-20T08:58:47;5.20;;;2.25;;
45420;SDS011;55462;47.042;8.292;2022-09-20T09:01:13;2.80;;;2.60;;
45420;SDS011;55462;47.042;8.292;2022-09-20T09:03:42;2.90;;;2.35;;
45420;SDS011;55462;47.042;8.292;2022-09-20T09:06:09;3.95;;;2.50;;
45420;SDS011;55462;47.042;8.292;2022-09-20T09:08:36;3.10;;;1.95;;
45420;SDS011;55462;47.042;8.292;2022-09-20T09:11:06;5.75;;;3.08;;
45420;SDS011;55462;47.042;8.292;2022-09-20T09:16:05;6.55;;;2.90;;
45420;SDS011;55462;47.042;8.292;2022-09-20T09:18:38;6.90;;;2.42;;
45420;SDS011;55462;47.042;8.292;2022-09-20T09:21:05;4.78;;;2.40;;
45420;SDS011;55462;47.042;8.292;2022-09-20T09:24:15;7.35;;;2.85;;
45420;SDS011;55462;47.042;8.292;2022-09-20T09:26:34;4.32;;;3.05;;
45420;SDS011;55462;47.042;8.292;2022-09-20T09:31:47;4.82;;;2.60;;
45420;SDS011;55462;47.042;8.292;2022-09-20T09:34:27;4.00;;;2.70;;
45420;SDS011;55462;47.042;8.292;2022-09-20T09:36:54;2.35;;;2.15;;
45420;SDS011;55462;47.042;8.292;2022-09-20T09:41:45;3.05;;;2.50;;
45420;SDS011;55462;47.042;8.292;2022-09-20T09:44:21;3.45;;;2.45;;
45420;SDS011;55462;47.042;8.292;2022-09-20T09:46:51;3.83;;;2.35;;
45420;SDS011;55462;47.042;8.292;2022-09-20T09:54:21;3.85;;;2.10;;
45420;SDS011;55462;47.042;8.292;2022-09-20T09:56:53;5.53;;;2.40;;
45420;SDS011;55462;47.042;8.292;2022-09-20T09:59:47;2.72;;;2.10;;
45420;SDS011;55462;47.042;8.292;2022-09-20T10:02:55;3.72;;;2.20;;
45420;SDS011;55462;47.042;8.292;2022-09-20T10:08:34;2.63;;;1.88;;
45420;SDS011;55462;47.042;8.292;2022-09-20T10:22:39;5.10;;;1.70;;
45420;SDS011;55462;47.042;8.292;2022-09-20T10:25:31;3.35;;;2.30;;
45420;SDS011;55462;47.042;8.292;2022-09-20T10:28:27;2.70;;;1.95;;
45420;SDS011;55462;47.042;8.292;2022-09-20T10:36:24;2.35;;;1.90;;
45420;SDS011;55462;47.042;8.292;2022-09-20T10:39:55;3.75;;;1.83;;
45420;SDS011;55462;47.042;8.292;2022-09-20T10:42:03;2.58;;;1.65;;
45420;SDS011;55462;47.042;8.292;2022-09-20T10:45:01;4.45;;;1.77;;
45420;SDS011;55462;47.042;8.292;2022-09-20T10:47:45;3.08;;;1.50;;
45420;SDS011;55462;47.042;8.292;2022-09-20T10:55:30;3.95;;;1.80;;
45420;SDS011;55462;47.042;8.292;2022-09-20T11:09:16;1.70;;;1.52;;
45420;SDS011;55462;47.042;8.292;2022-09-20T11:11:54;4.22;;;1.85;;
45420;SDS011;55462;47.042;8.292;2022-09-20T11:14:37;4.32;;;1.70;;
45420;SDS011;55462;47.042;8.292;2022-09-20T11:17:13;2.47;;;1.90;;
45420;SDS011;55462;47.042;8.292;2022-09-20T11:22:48;5.25;;;1.83;;
45420;SDS011;55462;47.042;8.292;2022-09-20T11:25:21;2.22;;;1.77;;
45420;SDS011;55462;47.042;8.292;2022-09-20T11:27:54;3.65;;;1.70;;
45420;SDS011;55462;47.042;8.292;2022-09-20T11:30:23;3.63;;;1.50;;
45420;SDS011;55462;47.042;8.292;2022-09-20T11:33:04;2.72;;;1.55;;
45420;SDS011;55462;47.042;8.292;2022-09-20T11:35:32;6.22;;;1.67;;
45420;SDS011;55462;47.042;8.292;2022-09-20T11:40:31;3.75;;;2.20;;
45420;SDS011;55462;47.042;8.292;2022-09-20T11:42:59;4.63;;;1.95;;
45420;SDS011;55462;47.042;8.292;2022-09-20T11:45:26;2.47;;;1.95;;
45420;SDS011;55462;47.042;8.292;2022-09-20T11:47:53;7.45;;;2.03;;
45420;SDS011;55462;47.042;8.292;2022-09-20T11:53:43;3.72;;;1.75;;
45420;SDS011;55462;47.042;8.292;2022-09-20T11:56:21;2.72;;;1.67;;
45420;SDS011;55462;47.042;8.292;2022-09-20T11:58:49;2.45;;;1.63;;
45420;SDS011;55462;47.042;8.292;2022-09-20T12:01:24;4.82;;;2.00;;
45420;SDS011;55462;47.042;8.292;2022-09-20T12:03:51;2.08;;;1.60;;
45420;SDS011;55462;47.042;8.292;2022-09-20T12:06:29;5.95;;;2.20;;
45420;SDS011;55462;47.042;8.292;2022-09-20T12:08:57;4.18;;;1.83;;
45420;SDS011;55462;47.042;8.292;2022-09-20T12:11:26;4.35;;;2.00;;
45420;SDS011;55462;47.042;8.292;2022-09-20T12:13:59;3.35;;;1.70;;
45420;SDS011;55462;47.042;8.292;2022-09-20T12:16:41;4.53;;;2.00;;
45420;SDS011;55462;47.042;8.292;2022-09-20T12:19:11;4.50;;;1.90;;
45420;SDS011;55462;47.042;8.292;2022-09-20T12:24:22;3.05;;;1.80;;
45420;SDS011;55462;47.042;8.292;2022-09-20T12:26:49;5.80;;;1.67;;
45420;SDS011;55462;47.042;8.292;2022-09-20T12:31:59;3.05;;;1.65;;
45420;SDS011;55462;47.042;8.292;2022-09-20T12:39:38;2.95;;;1.58;;
45420;SDS011;55462;47.042;8.292;2022-09-20T12:55:29;2.95;;;2.13;;
45420;SDS011;55462;47.042;8.292;2022-09-20T12:57:59;4.93;;;2.13;;
45420;SDS011;55462;47.042;8.292;2022-09-20T13:02:56;3.90;;;2.00;;
45420;SDS011;55462;47.042;8.292;2022-09-20T13:05:31;3.53;;;1.70;;
45420;SDS011;55462;47.042;8.292;2022-09-20T13:08:00;5.15;;;2.05;;
45420;SDS011;55462;47.042;8.292;2022-09-20T13:10:28;3.50;;;1.88;;
45420;SDS011;55462;47.042;8.292;2022-09-20T13:12:59;2.65;;;1.80;;
45420;SDS011;55462;47.042;8.292;2022-09-20T13:15:27;2.65;;;1.90;;
45420;SDS011;55462;47.042;8.292;2022-09-20T13:17:54;5.65;;;1.90;;
45420;SDS011;55462;47.042;8.292;2022-09-20T13:20:22;3.50;;;1.90;;
45420;SDS011;55462;47.042;8.292;2022-09-20T13:22:50;2.50;;;1.73;;
45420;SDS011;55462;47.042;8.292;2022-09-20T13:25:16;3.03;;;1.70;;
45420;SDS011;55462;47.042;8.292;2022-09-20T13:27:50;4.05;;;2.00;;
45420;SDS011;55462;47.042;8.292;2022-09-20T13:32:51;4.95;;;2.13;;
45420;SDS011;55462;47.042;8.292;2022-09-20T13:35:20;5.07;;;2.15;;
45420;SDS011;55462;47.042;8.292;2022-09-20T13:37:57;3.47;;;1.85;;
45420;SDS011;55462;47.042;8.292;2022-09-20T13:45:56;1.95;;;1.40;;
45420;SDS011;55462;47.042;8.292;2022-09-20T13:48:28;4.43;;;1.80;;
45420;SDS011;55462;47.042;8.292;2022-09-20T13:50:54;2.80;;;2.00;;
45420;SDS011;55462;47.042;8.292;2022-09-20T13:53:21;4.28;;;1.85;;
45420;SDS011;55462;47.042;8.292;2022-09-20T13:55:48;3.95;;;1.85;;
45420;SDS011;55462;47.042;8.292;2022-09-20T13:58:20;4.38;;;2.10;;
45420;SDS011;55462;47.042;8.292;2022-09-20T14:00:50;2.22;;;1.80;;
45420;SDS011;55462;47.042;8.292;2022-09-20T14:03:18;3.10;;;2.00;;
45420;SDS011;55462;47.042;8.292;2022-09-20T14:05:48;3.78;;;1.77;;
45420;SDS011;55462;47.042;8.292;2022-09-20T14:08:19;4.53;;;1.70;;
45420;SDS011;55462;47.042;8.292;2022-09-20T14:13:37;2.33;;;1.77;;
45420;SDS011;55462;47.042;8.292;2022-09-20T14:16:05;1.80;;;1.70;;
45420;SDS011;55462;47.042;8.292;2022-09-20T14:18:31;5.00;;;1.77;;
45420;SDS011;55462;47.042;8.292;2022-09-20T14:20:57;3.15;;;1.90;;
45420;SDS011;55462;47.042;8.292;2022-09-20T14:23:24;3.80;;;1.88;;
45420;SDS011;55462;47.042;8.292;2022-09-20T14:28:43;2.17;;;1.60;;
45420;SDS011;55462;47.042;8.292;2022-09-20T14:31:25;3.08;;;1.60;;
45420;SDS011;55462;47.042;8.292;2022-09-20T14:33:53;3.88;;;1.42;;
45420;SDS011;55462;47.042;8.292;2022-09-20T14:36:25;2.15;;;1.35;;
45420;SDS011;55462;47.042;8.292;2022-09-20T14:38:53;4.50;;;1.63;;
45420;SDS011;55462;47.042;8.292;2022-09-20T14:41:34;5.50;;;1.95;;
45420;SDS011;55462;47.042;8.292;2022-09-20T14:44:01;2.60;;;1.52;;
45420;SDS011;55462;47.042;8.292;2022-09-20T14:46:32;2.63;;;1.52;;
45420;SDS011;55462;47.042;8.292;2022-09-20T14:51:46;3.35;;;2.03;;
45420;SDS011;55462;47.042;8.292;2022-09-20T14:56:47;6.25;;;1.80;;
45420;SDS011;55462;47.042;8.292;2022-09-20T15:01:43;2.88;;;1.67;;
45420;SDS011;55462;47.042;8.292;2022-09-20T15:04:18;4.13;;;1.60;;
45420;SDS011;55462;47.042;8.292;2022-09-20T15:06:45;2.92;;;1.70;;
45420;SDS011;55462;47.042;8.292;2022-09-20T15:09:11;1.60;;;1.25;;
45420;SDS011;55462;47.042;8.292;2022-09-20T15:11:37;2.85;;;1.70;;
45420;SDS011;55462;47.042;8.292;2022-09-20T15:14:03;3.53;;;1.45;;
45420;SDS011;55462;47.042;8.292;2022-09-20T15:16:29;3.42;;;1.80;;
45420;SDS011;55462;47.042;8.292;2022-09-20T15:18:54;6.75;;;1.77;;
45420;SDS011;55462;47.042;8.292;2022-09-20T15:21:20;2.50;;;1.48;;
45420;SDS011;55462;47.042;8.292;2022-09-20T15:23:45;2.78;;;1.58;;
45420;SDS011;55462;47.042;8.292;2022-09-20T15:26:11;2.30;;;1.60;;
45420;SDS011;55462;47.042;8.292;2022-09-20T15:28:37;3.25;;;1.70;;
45420;SDS011;55462;47.042;8.292;2022-09-20T15:31:03;2.55;;;1.40;;
45420;SDS011;55462;47.042;8.292;2022-09-20T15:33:29;2.58;;;1.48;;
45420;SDS011;55462;47.042;8.292;2022-09-20T15:35:56;5.47;;;1.50;;
45420;SDS011;55462;47.042;8.292;2022-09-20T15:38:21;3.35;;;1.60;;
45420;SDS011;55462;47.042;8.292;2022-09-20T15:40:50;4.30;;;1.60;;
45420;SDS011;55462;47.042;8.292;2022-09-20T15:43:17;3.58;;;1.30;;
45420;SDS011;55462;47.042;8.292;2022-09-20T15:45:49;3.13;;;1.38;;
45420;SDS011;55462;47.042;8.292;2022-09-20T15:48:20;1.98;;;1.35;;
45420;SDS011;55462;47.042;8.292;2022-09-20T15:53:25;3.35;;;1.40;;
45420;SDS011;55462;47.042;8.292;2022-09-20T15:55:50;2.03;;;1.38;;
45420;SDS011;55462;47.042;8.292;2022-09-20T15:58:16;1.88;;;1.20;;
45420;SDS011;55462;47.042;8.292;2022-09-20T16:00:41;1.75;;;1.42;;
45420;SDS011;55462;47.042;8.292;2022-09-20T16:03:09;3.55;;;1.52;;
45420;SDS011;55462;47.042;8.292;2022-09-20T16:05:34;4.30;;;1.27;;
45420;SDS011;55462;47.042;8.292;2022-09-20T16:08:00;2.38;;;1.63;;
45420;SDS011;55462;47.042;8.292;2022-09-20T16:10:26;4.10;;;1.58;;
45420;SDS011;55462;47.042;8.292;2022-09-20T16:12:51;1.27;;;1.10;;
45420;SDS011;55462;47.042;8.292;2022-09-20T16:15:16;2.47;;;1.50;;
45420;SDS011;55462;47.042;8.292;2022-09-20T16:17:42;2.58;;;1.70;;
45420;SDS011;55462;47.042;8.292;2022-09-20T16:20:26;3.63;;;1.60;;
45420;SDS011;55462;47.042;8.292;2022-09-20T16:22:51;3.92;;;1.80;;
45420;SDS011;55462;47.042;8.292;2022-09-20T16:25:16;4.70;;;1.65;;
45420;SDS011;55462;47.042;8.292;2022-09-20T16:27:42;4.82;;;1.63;;
45420;SDS011;55462;47.042;8.292;2022-09-20T16:30:07;4.18;;;1.98;;
45420;SDS011;55462;47.042;8.292;2022-09-20T16:32:33;7.13;;;1.77;;
45420;SDS011;55462;47.042;8.292;2022-09-20T16:34:58;3.88;;;2.00;;
45420;SDS011;55462;47.042;8.292;2022-09-20T16:37:27;3.80;;;1.50;;
45420;SDS011;55462;47.042;8.292;2022-09-20T16:39:56;3.17;;;1.42;;
45420;SDS011;55462;47.042;8.292;2022-09-20T16:42:22;2.88;;;1.77;;
45420;SDS011;55462;47.042;8.292;2022-09-20T16:44:48;1.88;;;1.48;;
45420;SDS011;55462;47.042;8.292;2022-09-20T16:47:14;4.55;;;1.75;;
45420;SDS011;55462;47.042;8.292;2022-09-20T16:49:46;3.25;;;1.50;;
45420;SDS011;55462;47.042;8.292;2022-09-20T16:52:12;5.28;;;1.80;;
45420;SDS011;55462;47.042;8.292;2022-09-20T16:54:38;3.28;;;1.83;;
45420;SDS011;55462;47.042;8.292;2022-09-20T16:57:03;4.50;;;1.88;;
45420;SDS011;55462;47.042;8.292;2022-09-20T16:59:29;4.57;;;1.50;;
45420;SDS011;55462;47.042;8.292;2022-09-20T17:01:54;6.13;;;1.98;;
45420;SDS011;55462;47.042;8.292;2022-09-20T17:04:20;6.28;;;2.10;;
45420;SDS011;55462;47.042;8.292;2022-09-20T17:06:47;4.47;;;1.85;;
45420;SDS011;55462;47.042;8.292;2022-09-20T17:09:13;4.47;;;1.40;;
45420;SDS011;55462;47.042;8.292;2022-09-20T17:11:40;5.15;;;1.92;;
45420;SDS011;55462;47.042;8.292;2022-09-20T17:14:07;4.95;;;1.60;;
45420;SDS011;55462;47.042;8.292;2022-09-20T17:16:34;5.95;;;2.05;;
45420;SDS011;55462;47.042;8.292;2022-09-20T17:19:05;5.70;;;1.30;;
45420;SDS011;55462;47.042;8.292;2022-09-20T17:21:32;2.50;;;1.60;;
45420;SDS011;55462;47.042;8.292;2022-09-20T17:24:00;3.85;;;2.13;;
45420;SDS011;55462;47.042;8.292;2022-09-20T17:26:26;4.03;;;1.77;;
45420;SDS011;55462;47.042;8.292;2022-09-20T17:28:55;3.50;;;1.80;;
45420;SDS011;55462;47.042;8.292;2022-09-20T17:31:32;2.83;;;1.70;;
45420;SDS011;55462;47.042;8.292;2022-09-20T17:33:59;4.68;;;1.80;;
45420;SDS011;55462;47.042;8.292;2022-09-20T17:36:27;2.72;;;1.73;;
45420;SDS011;55462;47.042;8.292;2022-09-20T17:38:53;2.88;;;1.85;;
45420;SDS011;55462;47.042;8.292;2022-09-20T17:41:21;5.85;;;1.90;;
45420;SDS011;55462;47.042;8.292;2022-09-20T17:43:47;4.13;;;1.65;;
45420;SDS011;55462;47.042;8.292;2022-09-20T17:46:24;5.85;;;1.80;;
45420;SDS011;55462;47.042;8.292;2022-09-20T17:48:51;5.07;;;1.75;;
45420;SDS011;55462;47.042;8.292;2022-09-20T17:51:19;4.18;;;1.90;;
45420;SDS011;55462;47.042;8.292;2022-09-20T17:53:46;3.00;;;1.80;;
45420;SDS011;55462;47.042;8.292;2022-09-20T17:56:12;3.00;;;1.70;;
45420;SDS011;55462;47.042;8.292;2022-09-20T17:58:38;4.60;;;1.70;;
45420;SDS011;55462;47.042;8.292;2022-09-20T18:01:04;2.95;;;2.05;;
45420;SDS011;55462;47.042;8.292;2022-09-20T18:03:38;2.70;;;1.90;;
45420;SDS011;55462;47.042;8.292;2022-09-20T18:08:37;1.92;;;1.42;;
45420;SDS011;55462;47.042;8.292;2022-09-20T18:11:03;4.25;;;2.17;;
45420;SDS011;55462;47.042;8.292;2022-09-20T18:13:28;3.60;;;2.00;;
45420;SDS011;55462;47.042;8.292;2022-09-20T18:15:54;1.80;;;1.63;;
45420;SDS011;55462;47.042;8.292;2022-09-20T18:18:20;1.95;;;1.75;;
45420;SDS011;55462;47.042;8.292;2022-09-20T18:20:45;5.32;;;2.00;;
45420;SDS011;55462;47.042;8.292;2022-09-20T18:23:11;2.17;;;1.98;;
45420;SDS011;55462;47.042;8.292;2022-09-20T18:25:36;2.92;;;1.85;;
45420;SDS011;55462;47.042;8.292;2022-09-20T18:28:20;2.33;;;1.85;;
45420;SDS011;55462;47.042;8.292;2022-09-20T18:30:47;1.65;;;1.55;;
45420;SDS011;55462;47.042;8.292;2022-09-20T18:33:14;3.67;;;2.25;;
45420;SDS011;55462;47.042;8.292;2022-09-20T18:35:40;4.68;;;2.20;;
45420;SDS011;55462;47.042;8.292;2022-09-20T18:38:09;4.10;;;2.10;;
45420;SDS011;55462;47.042;8.292;2022-09-20T18:40:36;3.47;;;2.00;;
45420;SDS011;55462;47.042;8.292;2022-09-20T18:43:02;4.10;;;2.00;;
45420;SDS011;55462;47.042;8.292;2022-09-20T18:45:28;4.13;;;2.20;;
45420;SDS011;55462;47.042;8.292;2022-09-20T18:47:53;3.03;;;1.95;;
45420;SDS011;55462;47.042;8.292;2022-09-20T18:50:22;5.47;;;2.45;;
45420;SDS011;55462;47.042;8.292;2022-09-20T18:52:50;3.35;;;1.83;;
45420;SDS011;55462;47.042;8.292;2022-09-20T18:55:16;4.03;;;1.85;;
45420;SDS011;55462;47.042;8.292;2022-09-20T18:57:41;2.25;;;1.90;;
45420;SDS011;55462;47.042;8.292;2022-09-20T19:00:08;3.65;;;1.85;;
45420;SDS011;55462;47.042;8.292;2022-09-20T19:05:40;2.13;;;1.90;;
45420;SDS011;55462;47.042;8.292;2022-09-20T19:08:17;6.93;;;2.50;;
45420;SDS011;55462;47.042;8.292;2022-09-20T19:10:58;3.38;;;2.03;;
45420;SDS011;55462;47.042;8.292;2022-09-20T19:16:19;6.05;;;2.00;;
45420;SDS011;55462;47.042;8.292;2022-09-20T19:18:53;4.72;;;1.88;;
45420;SDS011;55462;47.042;8.292;2022-09-20T19:21:53;4.35;;;1.88;;
45420;SDS011;55462;47.042;8.292;2022-09-20T19:27:04;4.20;;;2.00;;
45420;SDS011;55462;47.042;8.292;2022-09-20T19:29:29;4.38;;;2.28;;
45420;SDS011;55462;47.042;8.292;2022-09-20T19:31:56;4.78;;;2.17;;
45420;SDS011;55462;47.042;8.292;2022-09-20T19:34:24;5.70;;;2.00;;
45420;SDS011;55462;47.042;8.292;2022-09-20T19:45:18;2.28;;;1.98;;
45420;SDS011;55462;47.042;8.292;2022-09-20T19:50:34;2.35;;;2.00;;
45420;SDS011;55462;47.042;8.292;2022-09-20T19:53:12;5.88;;;2.95;;
45420;SDS011;55462;47.042;8.292;2022-09-20T19:55:39;3.42;;;2.00;;
45420;SDS011;55462;47.042;8.292;2022-09-20T19:58:10;3.05;;;1.92;;
45420;SDS011;55462;47.042;8.292;2022-09-20T20:00:35;4.45;;;2.03;;
45420;SDS011;55462;47.042;8.292;2022-09-20T20:03:01;4.88;;;2.60;;
45420;SDS011;55462;47.042;8.292;2022-09-20T20:05:26;2.92;;;2.00;;
45420;SDS011;55462;47.042;8.292;2022-09-20T20:24:42;7.20;;;2.00;;
45420;SDS011;55462;47.042;8.292;2022-09-20T20:27:15;2.97;;;2.20;;
45420;SDS011;55462;47.042;8.292;2022-09-20T20:29:41;4.97;;;1.95;;
45420;SDS011;55462;47.042;8.292;2022-09-20T20:32:06;4.32;;;2.08;;
45420;SDS011;55462;47.042;8.292;2022-09-20T20:34:31;4.38;;;2.00;;
45420;SDS011;55462;47.042;8.292;2022-09-20T20:36:58;4.60;;;2.40;;
45420;SDS011;55462;47.042;8.292;2022-09-20T20:39:26;4.50;;;2.20;;
45420;SDS011;55462;47.042;8.292;2022-09-20T20:41:53;4.25;;;2.25;;
45420;SDS011;55462;47.042;8.292;2022-09-20T20:44:18;2.95;;;2.42;;
45420;SDS011;55462;47.042;8.292;2022-09-20T20:46:45;4.55;;;2.47;;
45420;SDS011;55462;47.042;8.292;2022-09-20T20:49:11;2.25;;;1.95;;